Time;durP1;ratioP1;P1;durP2;ratioP2;P2;SDS_P1;SDS_P2;PMS_P1;PMS_P2;Temp;Humidity;BMP_temperature;BMP_pressure;BME280_temperature;BME280_humidity;BME280_pressure;Samples;Min_cycle;Max_cycle;Signal;HPM_P1;HPM_P2
2022/12/16 00:00:13;;;;;;;57.95;28.92;;;-3.80;99.90;;;;;;4994838;28;20068;-74
2022/12/16 00:02:39;;;;;;;58.58;28.13;;;-3.70;99.90;;;;;;4994959;28;20030;-74
2022/12/16 00:05:05;;;;;;;64.15;29.52;;;-3.70;99.90;;;;;;4993195;28;20034;-74
2022/12/16 00:07:30;;;;;;;63.67;30.23;;;-3.50;99.90;;;;;;4992983;28;20034;-74
2022/12/16 00:09:56;;;;;;;59.10;28.10;;;-3.40;99.90;;;;;;4992869;28;20486;-74
2022/12/16 00:12:21;;;;;;;56.80;27.73;;;-3.30;99.90;;;;;;4993341;28;20031;-74
2022/12/16 00:14:47;;;;;;;61.70;28.65;;;-3.30;99.90;;;;;;4994655;28;20018;-74
2022/12/16 00:17:13;;;;;;;63.35;30.10;;;-3.20;99.90;;;;;;4995722;28;20113;-73
2022/12/16 00:19:38;;;;;;;56.83;28.85;;;-3.10;99.90;;;;;;4992257;28;20070;-74
2022/12/16 00:22:04;;;;;;;63.05;30.10;;;-3.00;99.90;;;;;;4994240;28;20363;-74
2022/12/16 00:24:30;;;;;;;65.18;31.02;;;-2.90;99.90;;;;;;4993584;28;20026;-74
2022/12/16 00:26:56;;;;;;;60.72;27.15;;;-2.90;99.90;;;;;;4994580;28;20435;-74
2022/12/16 00:29:21;;;;;;;60.25;29.70;;;-2.80;99.90;;;;;;4993942;28;20064;-74
2022/12/16 00:31:47;;;;;;;58.65;28.98;;;-2.70;99.90;;;;;;4993482;28;20058;-74
2022/12/16 00:34:16;;;;;;;54.47;27.25;;;-2.70;99.90;;;;;;4992896;28;20030;-74
2022/12/16 00:36:42;;;;;;;59.47;30.20;;;-2.60;99.90;;;;;;4990439;28;20030;-74
2022/12/16 00:39:11;;;;;;;57.60;28.67;;;-2.50;99.90;;;;;;4992734;28;20065;-73
2022/12/16 00:41:37;;;;;;;61.97;28.23;;;-2.50;99.90;;;;;;4993716;28;20033;-73
2022/12/16 00:44:03;;;;;;;60.55;29.70;;;-2.40;99.90;;;;;;4991244;28;20042;-74
2022/12/16 00:46:28;;;;;;;58.50;29.02;;;-2.30;99.90;;;;;;4979095;28;20106;-72
2022/12/16 00:48:54;;;;;;;60.88;28.48;;;-2.30;99.90;;;;;;4988733;28;20053;-72
2022/12/16 00:51:20;;;;;;;58.65;28.65;;;-2.30;99.90;;;;;;4993389;28;20037;-73
2022/12/16 00:53:45;;;;;;;57.28;28.90;;;-2.20;99.90;;;;;;4992489;28;20479;-73
2022/12/16 00:56:21;;;;;;;54.17;28.15;;;-2.10;99.90;;;;;;4991770;28;20066;-73
2022/12/16 00:58:47;;;;;;;59.38;29.10;;;-2.10;99.90;;;;;;4991944;28;20387;-73
2022/12/16 01:01:13;;;;;;;66.70;31.10;;;-2.00;99.90;;;;;;4991572;28;20125;-73
2022/12/16 01:03:39;;;;;;;59.47;29.60;;;-2.00;99.90;;;;;;4993804;28;20522;-73
2022/12/16 01:06:09;;;;;;;61.75;28.83;;;-2.00;99.90;;;;;;4993588;28;20109;-73
2022/12/16 01:08:35;;;;;;;57.50;28.42;;;-1.90;99.90;;;;;;4990032;28;20027;-73
2022/12/16 01:11:00;;;;;;;56.50;27.50;;;-1.90;99.90;;;;;;4994007;28;20018;-74
2022/12/16 01:13:26;;;;;;;64.60;29.85;;;-1.80;99.90;;;;;;4992691;28;20054;-73
2022/12/16 01:15:52;;;;;;;57.70;28.50;;;-1.80;99.90;;;;;;4993292;28;20391;-73
2022/12/16 01:18:18;;;;;;;58.03;29.42;;;-1.70;99.90;;;;;;4992576;28;20030;-73
2022/12/16 01:20:43;;;;;;;63.22;29.75;;;-1.70;99.90;;;;;;4992141;28;20387;-72
2022/12/16 01:23:09;;;;;;;58.60;29.65;;;-1.70;99.90;;;;;;4992186;28;20026;-72
2022/12/16 01:25:35;;;;;;;58.03;29.13;;;-1.70;99.90;;;;;;4993311;28;20029;-73
2022/12/16 01:28:01;;;;;;;58.67;29.90;;;-1.60;99.90;;;;;;4993403;28;20038;-73
2022/12/16 01:30:26;;;;;;;56.13;28.73;;;-1.60;99.90;;;;;;4992211;28;20101;-73
2022/12/16 01:32:52;;;;;;;57.47;28.00;;;-1.60;99.90;;;;;;4992866;28;20022;-74
2022/12/16 01:35:17;;;;;;;59.60;28.30;;;-1.60;99.90;;;;;;4992711;28;20066;-73
2022/12/16 01:37:43;;;;;;;56.25;29.25;;;-1.60;99.90;;;;;;4992590;28;20113;-73
2022/12/16 01:40:18;;;;;;;54.75;28.95;;;-1.50;99.90;;;;;;4990732;28;20049;-73
2022/12/16 01:42:44;;;;;;;55.30;28.63;;;-1.50;99.90;;;;;;4992794;28;20471;-73
2022/12/16 01:45:32;;;;;;;57.90;29.35;;;-1.50;99.90;;;;;;4991268;28;20157;-73
2022/12/16 01:48:18;;;;;;;53.97;30.17;;;-1.50;99.90;;;;;;4992929;28;20057;-73
2022/12/16 01:50:44;;;;;;;58.60;28.20;;;-1.50;99.90;;;;;;4990329;28;20022;-74
2022/12/16 01:53:11;;;;;;;57.60;31.02;;;-1.50;99.90;;;;;;4988018;28;20500;-73
2022/12/16 01:55:42;;;;;;;60.03;28.95;;;-1.40;99.90;;;;;;4988423;28;20023;-73
2022/12/16 01:58:20;;;;;;;57.28;30.05;;;-1.40;99.90;;;;;;4989264;28;20058;-73
2022/12/16 02:00:45;;;;;;;55.80;28.02;;;-1.30;99.90;;;;;;4988405;28;20110;-74
2022/12/16 02:03:11;;;;;;;53.70;28.90;;;-1.30;99.90;;;;;;4989334;28;20707;-74
2022/12/16 02:05:40;;;;;;;58.22;30.20;;;-1.30;99.90;;;;;;5005879;28;20505;-73
2022/12/16 02:08:12;;;;;;;62.40;29.90;;;-1.30;99.90;;;;;;4989945;28;20848;-74
2022/12/16 02:10:44;;;;;;;61.97;28.42;;;-1.30;99.90;;;;;;4983046;28;20394;-72
2022/12/16 02:13:34;;;;;;;61.78;29.05;;;-1.30;99.90;;;;;;4984113;28;20502;-72
2022/12/16 02:16:23;;;;;;;58.55;29.20;;;-1.30;99.90;;;;;;4988234;28;20034;-72
2022/12/16 02:19:26;;;;;;;61.67;29.10;;;-1.30;99.90;;;;;;4990989;28;20026;-72
2022/12/16 02:22:17;;;;;;;53.42;29.30;;;-1.30;99.90;;;;;;4987953;28;20030;-72
2022/12/16 02:25:11;;;;;;;52.05;27.58;;;-1.30;99.90;;;;;;4969006;28;20390;-72
2022/12/16 02:28:03;;;;;;;64.20;28.95;;;-1.30;99.90;;;;;;4991271;28;20393;-72
2022/12/16 02:30:50;;;;;;;55.38;30.15;;;-1.20;99.90;;;;;;4986290;28;20434;-72
2022/12/16 02:34:00;;;;;;;59.20;30.27;;;-1.20;99.90;;;;;;4987715;28;20029;-72
2022/12/16 02:36:36;;;;;;;59.65;29.48;;;-1.20;99.90;;;;;;5005888;28;20030;-72
2022/12/16 02:39:14;;;;;;;60.17;30.08;;;-1.20;99.90;;;;;;4989105;28;20042;-72
2022/12/16 02:42:00;;;;;;;58.20;29.88;;;-1.20;99.90;;;;;;4988352;28;20014;-72
2022/12/16 02:44:38;;;;;;;57.47;29.17;;;-1.20;99.90;;;;;;4990329;28;20581;-72
2022/12/16 02:47:04;;;;;;;65.63;32.15;;;-1.10;99.90;;;;;;4989661;28;20019;-72
2022/12/16 02:49:29;;;;;;;61.17;30.63;;;-1.10;99.90;;;;;;4991830;28;20069;-72
2022/12/16 02:51:58;;;;;;;61.38;29.73;;;-1.10;99.90;;;;;;4990809;28;20393;-72
2022/12/16 02:54:24;;;;;;;60.35;31.05;;;-1.10;99.90;;;;;;4992573;28;20022;-72
2022/12/16 02:57:29;;;;;;;56.65;31.70;;;-1.00;99.90;;;;;;4993090;28;20042;-72
2022/12/16 03:00:12;;;;;;;63.55;30.73;;;-1.00;99.90;;;;;;4979413;28;20046;-72
2022/12/16 03:02:53;;;;;;;61.20;30.55;;;-1.00;99.90;;;;;;4995041;28;20391;-72
2022/12/16 03:05:33;;;;;;;59.55;28.73;;;-0.90;99.90;;;;;;4996696;28;20022;-72
2022/12/16 03:08:06;;;;;;;61.13;30.27;;;-0.90;99.90;;;;;;4993193;28;20062;-72
2022/12/16 03:10:37;;;;;;;60.97;29.80;;;-0.90;99.90;;;;;;4993296;28;20019;-72
2022/12/16 03:13:06;;;;;;;63.70;31.52;;;-0.90;99.90;;;;;;4994668;28;20511;-72
2022/12/16 03:15:33;;;;;;;59.20;30.50;;;-0.90;99.90;;;;;;4993267;28;20169;-71
2022/12/16 03:18:01;;;;;;;57.50;31.58;;;-0.90;99.90;;;;;;4995137;28;20388;-72
2022/12/16 03:20:39;;;;;;;64.35;29.83;;;-0.80;99.90;;;;;;4990798;28;20079;-72
2022/12/16 03:23:11;;;;;;;59.90;30.63;;;-0.80;99.90;;;;;;4994202;28;20022;-72
2022/12/16 03:25:41;;;;;;;62.03;29.88;;;-0.80;99.90;;;;;;4994536;28;20038;-72
2022/12/16 03:28:26;;;;;;;61.45;29.85;;;-0.90;99.90;;;;;;4993567;28;20046;-72
2022/12/16 03:31:00;;;;;;;57.15;30.25;;;-0.80;99.90;;;;;;4992627;28;20069;-72
2022/12/16 03:33:32;;;;;;;57.63;29.83;;;-0.90;99.90;;;;;;4993951;28;20558;-71
2022/12/16 03:36:07;;;;;;;55.92;29.08;;;-0.90;99.90;;;;;;4991763;28;20037;-72
2022/12/16 03:38:34;;;;;;;55.78;29.98;;;-0.90;99.90;;;;;;4994827;28;20031;-72
2022/12/16 03:41:02;;;;;;;58.35;30.35;;;-0.90;99.90;;;;;;4992921;28;20379;-72
2022/12/16 03:43:27;;;;;;;61.05;30.85;;;-0.90;99.90;;;;;;4994526;28;20030;-72
2022/12/16 03:45:59;;;;;;;62.67;30.30;;;-0.90;99.90;;;;;;4994016;28;20089;-72
2022/12/16 03:48:25;;;;;;;61.70;30.65;;;-0.90;99.90;;;;;;4991324;28;20030;-72
2022/12/16 03:50:50;;;;;;;60.53;31.48;;;-0.90;99.90;;;;;;4990238;28;20034;-72
2022/12/16 03:53:16;;;;;;;58.92;30.70;;;-0.90;99.90;;;;;;4991070;28;20390;-72
2022/12/16 03:55:43;;;;;;;65.70;31.80;;;-0.90;99.90;;;;;;4991641;28;20545;-72
2022/12/16 03:58:09;;;;;;;62.78;31.48;;;-0.90;99.90;;;;;;4993232;28;20125;-72
2022/12/16 04:00:34;;;;;;;60.65;31.77;;;-1.00;99.90;;;;;;4987269;28;20121;-72
2022/12/16 04:03:00;;;;;;;61.28;32.30;;;-1.00;99.90;;;;;;4991031;28;20106;-73
2022/12/16 04:05:26;;;;;;;64.68;32.72;;;-0.90;99.90;;;;;;4993345;28;20041;-72
2022/12/16 04:07:51;;;;;;;61.22;33.17;;;-0.90;99.90;;;;;;4990851;28;20045;-72
2022/12/16 04:24:17;;;;;;;61.47;31.83;;;-0.90;99.90;;;;;;4989801;28;20033;-72
2022/12/16 04:24:18;;;;;;;71.88;33.80;;;-0.80;99.90;;;;;;4993543;28;20118;-72
2022/12/16 04:29:28;;;;;;;65.45;32.80;;;-0.80;99.90;;;;;;4993661;28;20574;-73
2022/12/16 04:31:54;;;;;;;65.38;33.65;;;-0.80;99.90;;;;;;4993359;28;20022;-72
2022/12/16 04:34:24;;;;;;;65.18;32.78;;;-0.70;99.90;;;;;;5003499;28;20058;-73
